Flight Track Log - Related Links

Times and Time Zones

All times are in EDT time to prevent confusion due to time zone crossing. See the SWA1707 flight status page for this flight to view local times or setup timezone preferences in your user account.


Time Position Orientation Groundspeed Altitude Reporting Facility
EDT Latitude Longitude Course Direction KTS MPH feet Rate Location/Type
Sun 09:56:36 PM 40.7550 -73.8447 118° Southeast 155 178 1,500  Level New York Center
Sun 09:57:36 PM 40.7333 -73.7917 118° Southeast 215 247 3,500 2,450 Climbing New York Center
Sun 09:58:36 PM 40.7828 -73.8186 338° Northwest 225 259 6,400 3,050 Climbing New York Center
Sun 09:59:36 PM 40.7642 -73.8917 251° West 236 272 9,600 2,800 Climbing New York Center
Sun 10:00:36 PM 40.7869 -73.9694 291° West 247 284 12,000 1,500 Climbing New York Center
Sun 10:01:36 PM 40.8436 -74.0353 319° Northwest 283 326 12,600 1,108 Climbing New York Center
Sun 10:02:46 PM 40.8667 -74.1667 283° West 358 412 14,400 1,467 Climbing New York TRACON
Sun 10:04:36 PM 40.8867 -74.4161 276° West 396 456 17,000 918 Climbing New York Center
Sun 10:05:36 PM 40.8925 -74.5564 273° West 386 444 17,000  Level New York Center
Sun 10:06:36 PM 40.8944 -74.6936 271° West 386 444 17,000  Level New York Center
Sun 10:07:36 PM 40.8772 -74.8272 260° West 380 437 17,000 500 Level New York Center
Sun 10:08:36 PM 40.8581 -74.9633 259° West 387 445 18,000 1,750 Climbing New York Center
Sun 10:09:36 PM 40.8389 -75.0883 259° West 387 445 20,500 2,750 Climbing New York Center
Sun 10:10:36 PM 40.8144 -75.2431 258° West 393 452 23,500 2,650 Climbing New York Center
Sun 10:11:36 PM 40.7942 -75.3897 260° West 404 465 25,800 2,250 Climbing New York Center
Sun 10:12:36 PM 40.7697 -75.5333 257° West 410 472 28,000 2,000 Climbing New York Center
Sun 10:13:36 PM 40.7492 -75.6797 260° West 410 472 29,800 1,850 Climbing New York Center
Sun 10:14:36 PM 40.7292 -75.8069 258° West 410 472 31,700 2,050 Climbing New York Center
Sun 10:15:36 PM 40.7086 -75.9453 259° West 399 459 33,900 1,900 Climbing New York Center
Sun 10:16:36 PM 40.6881 -76.0833 259° West 394 453 35,500 1,650 Climbing New York Center
Sun 10:17:36 PM 40.6672 -76.2183 259° West 389 448 37,200 1,700 Climbing New York Center
Sun 10:18:36 PM 40.6778 -76.3506 276° West 378 435 38,900 1,400 Climbing New York Center
Sun 10:19:36 PM 40.6983 -76.4839 282° West 372 428 40,000 550 Climbing New York Center
Sun 10:20:36 PM 40.7192 -76.6142 282° West 372 428 40,000  Level New York Center
Sun 10:21:36 PM 40.7378 -76.7419 281° West 367 422 40,000  Level New York Center
Sun 10:22:36 PM 40.7561 -76.8750 280° West 367 422 40,000  Level New York Center
Sun 10:23:36 PM 40.7764 -77.0056 282° West 367 422 40,000  Level New York Center
Sun 10:24:36 PM 40.7944 -77.1333 281° West 367 422 40,000  Level New York Center
Sun 10:25:36 PM 40.8144 -77.2642 281° West 367 422 40,000  Level New York Center
Sun 10:26:36 PM 40.8328 -77.3867 281° West 359 413 40,000  Level New York Center
Sun 10:28:29 PM 40.8672 -77.6422 280° West 357 411 40,000  Level Cleveland Center
Sun 10:29:29 PM 40.8853 -77.7733 280° West 357 411 40,000  Level Cleveland Center
Sun 10:30:29 PM 40.9031 -77.9017 280° West 357 411 40,000  Level Cleveland Center
Sun 10:31:29 PM 40.9206 -78.0303 280° West 357 411 40,000  Level Cleveland Center
Sun 10:32:29 PM 40.9358 -78.1617 279° West 357 411 40,000  Level Cleveland Center
Sun 10:33:29 PM 40.9531 -78.2819 281° West 362 417 40,000  Level Cleveland Center
Sun 10:34:29 PM 40.9658 -78.4161 277° West 367 422 40,000  Level Cleveland Center
Sun 10:35:29 PM 40.9808 -78.5422 279° West 367 422 40,000  Level Cleveland Center
Sun 10:36:29 PM 40.9956 -78.6711 279° West 367 422 40,000  Level Cleveland Center
Sun 10:37:29 PM 41.0081 -78.8000 277° West 367 422 40,000  Level Cleveland Center
Sun 10:38:29 PM 41.0203 -78.9292 277° West 360 414 40,000  Level Cleveland Center
Sun 10:39:29 PM 41.0347 -79.0553 279° West 360 414 40,000  Level Cleveland Center
Sun 10:40:29 PM 41.0467 -79.1817 277° West 355 409 40,000  Level Cleveland Center
Sun 10:41:29 PM 41.0608 -79.3108 278° West 350 403 40,000  Level Cleveland Center
Sun 10:42:29 PM 41.0703 -79.4375 276° West 350 403 40,000  Level Cleveland Center
Sun 10:43:29 PM 41.0842 -79.5611 279° West 350 403 40,000  Level Cleveland Center
Sun 10:44:29 PM 41.0956 -79.6850 277° West 350 403 40,000  Level Cleveland Center
Sun 10:45:29 PM 41.1089 -79.8086 278° West 350 403 40,000  Level Cleveland Center
Sun 10:46:29 PM 41.1203 -79.9353 277° West 350 403 40,000  Level Cleveland Center
Sun 10:47:29 PM 41.1333 -80.0622 278° West 350 403 40,000  Level Cleveland Center
Sun 10:48:29 PM 41.1422 -80.1917 275° West 350 403 40,000  Level Cleveland Center
Sun 10:49:29 PM 41.1550 -80.3211 278° West 350 403 40,000  Level Cleveland Center
Sun 10:50:29 PM 41.1656 -80.4508 276° West 350 403 40,000  Level Cleveland Center
Sun 10:51:29 PM 41.1761 -80.5831 276° West 350 403 40,000  Level Cleveland Center
Sun 10:52:29 PM 41.1886 -80.7156 277° West 350 403 40,000  Level Cleveland Center
Sun 10:53:29 PM 41.1989 -80.8481 276° West 356 410 40,000  Level Cleveland Center
Sun 10:54:29 PM 41.2108 -80.9917 276° West 361 415 40,000  Level Cleveland Center
Sun 10:55:29 PM 41.2228 -81.1242 277° West 371 427 40,000  Level Cleveland Center
Sun 10:56:29 PM 41.2347 -81.2625 277° West 371 427 40,000  Level Cleveland Center
Sun 10:57:29 PM 41.2442 -81.3950 275° West 371 427 40,000  Level Cleveland Center
Sun 10:58:29 PM 41.2597 -81.5361 278° West 376 433 40,000  Level Cleveland Center
Sun 10:59:29 PM 41.2689 -81.6744 275° West 376 433 40,000  Level Cleveland Center
Sun 11:00:29 PM 41.2800 -81.8128 276° West 381 438 40,000  Level Cleveland Center
Sun 11:01:29 PM 41.2908 -81.9539 276° West 386 444 40,000  Level Cleveland Center
Sun 11:02:29 PM 41.3017 -82.0978 276° West 391 450 40,000  Level Cleveland Center
Sun 11:03:29 PM 41.3100 -82.2472 274° West 403 464 40,000  Level Cleveland Center
Sun 11:04:29 PM 41.3203 -82.3914 275° West 403 464 40,000  Level Cleveland Center
Sun 11:05:29 PM 41.3303 -82.5353 275° West 403 464 40,000  Level Cleveland Center
Sun 11:06:29 PM 41.3403 -82.6822 275° West 403 464 40,000  Level Cleveland Center
Sun 11:07:29 PM 41.3500 -82.8292 275° West 408 470 40,000  Level Cleveland Center
Sun 11:08:29 PM 41.3614 -82.9817 276° West 408 470 40,000  Level Cleveland Center
Sun 11:09:29 PM 41.3708 -83.1261 275° West 408 470 40,000  Level Cleveland Center
Sun 11:10:29 PM 41.3781 -83.2731 274° West 408 470 40,000  Level Cleveland Center
Sun 11:11:29 PM 41.3889 -83.4283 275° West 408 470 40,000  Level Cleveland Center
Sun 11:12:29 PM 41.3975 -83.5811 274° West 413 475 40,000  Level Cleveland Center
Sun 11:13:29 PM 41.4078 -83.7367 275° West 418 481 40,000  Level Cleveland Center
Sun 11:14:29 PM 41.4158 -83.8922 274° West 423 487 40,000  Level Cleveland Center
Sun 11:15:29 PM 41.4239 -84.0450 274° West 423 487 40,000  Level Cleveland Center
Sun 11:16:29 PM 41.4336 -84.2006 275° West 423 487 40,000  Level Cleveland Center
Sun 11:17:29 PM 41.4461 -84.3342 277° West 423 487 40,000  Level Cleveland Center
Sun 11:18:57 PM 41.4564 -84.5533 274° West 421 484 40,000  Level Chicago Center
Sun 11:19:58 PM 41.4608 -84.7097 272° West 422 486 40,000 -49 Level Chicago Center
Sun 11:20:59 PM 41.4658 -84.8675 272° West 424 488 39,900 -836 Descending Chicago Center
Sun 11:22:00 PM 41.4714 -85.0564 272° West 424 488 38,300 -1,835 Descending Chicago Center
Sun 11:23:00 PM 41.4758 -85.2122 272° West 419 482 36,200 -2,628 Descending Chicago Center
Sun 11:24:01 PM 41.4789 -85.3778 271° West 431 496 33,000 -3,000 Descending Chicago Center
Sun 11:25:02 PM 41.4836 -85.5158 273° West 446 513 30,100 -3,246 Descending Chicago Center
Sun 11:26:03 PM 41.4889 -85.6881 272° West 456 525 26,400 -3,322 Descending Chicago Center
Sun 11:27:03 PM 41.4925 -85.8583 272° West 456 525 23,400 -3,025 Descending Chicago Center
Sun 11:28:04 PM 41.4975 -86.0519 272° West 432 497 20,300 -2,705 Descending Chicago Center
Sun 11:29:05 PM 41.5000 -86.2044 271° West 411 473 17,900 -2,410 Descending Chicago Center
Sun 11:30:06 PM 41.5033 -86.3503 272° West 396 456 15,400 -2,529 Descending Chicago Center
Sun 11:31:06 PM 41.5056 -86.4917 271° West 383 441 12,800 -2,182 Descending Chicago Center
Sun 11:32:07 PM 41.5075 -86.6269 271° West 367 422 11,000 -1,328 Descending Chicago Center
Sun 11:33:08 PM 41.5103 -86.7436 272° West 352 405 10,100 -496 Descending Chicago Center
Sun 11:34:08 PM 41.5117 -86.8614 271° West 322 371 10,000 -50 Descending Chicago Center
Sun 11:35:09 PM 41.5131 -86.9978 271° West 310 357 10,000  Level Chicago Center
Sun 11:36:10 PM 41.5147 -87.1108 271° West 308 354 10,000 -50 Level Chicago Center
Sun 11:37:10 PM 41.5147 -87.2250 270° West 310 357 9,900 -744 Descending Chicago Center
Sun 11:38:11 PM 41.5300 -87.3258 281° West 284 327 8,500 -1,388 Descending Chicago Center
Sun 11:39:11 PM 41.5503 -87.4250 285° West 278 320 7,100 -1,339 Descending Chicago Center
Sun 11:40:12 PM 41.5700 -87.5200 286° West 271 312 5,800 -1,180 Descending Chicago Center
Sun 11:41:13 PM 41.5903 -87.6150 286° West 270 311 4,700 -893 Descending Chicago Center
Sun 11:42:13 PM 41.6119 -87.7069 288° West 265 305 4,000 -545 Descending Chicago Center
Sun 11:43:14 PM 41.6642 -87.7561 325° Northwest 242 278 3,600 -595 Descending Chicago Center
Sun 11:44:14 PM 41.7044 -87.7936 325° Northwest 206 237 2,800 -992 Descending Chicago Center
Sun 11:45:15 PM 41.7386 -87.7992 353° North 151 174 1,600 -942 Descending Chicago Center
Sun 11:46:15 PM 41.7706 -87.7736 31° Northeast 139 160 900 -700 Descending Chicago Center

Login

Don't have an account? Register now (free) for customized features, flight alerts, and more!